Time;durP1;ratioP1;P1;durP2;ratioP2;P2;SDS_P1;SDS_P2;PMS_P1;PMS_P2;Temp;Humidity;BMP_temperature;BMP_pressure;BME280_temperature;BME280_humidity;BME280_pressure;Samples;Min_cycle;Max_cycle;Signal;HPM_P1;HPM_P2
2023/08/26 00:00:18;;;;;;;8.70;3.93;;;;;;;21.53;93.57;100279.50;6156150;23;20418;-84
2023/08/26 00:02:48;;;;;;;4.33;3.47;;;;;;;21.51;93.43;100270.69;6154154;23;20397;-84
2023/08/26 00:05:18;;;;;;;6.23;3.73;;;;;;;21.41;94.44;100268.03;6151114;23;20775;-84
2023/08/26 00:07:47;;;;;;;3.90;3.53;;;;;;;21.59;93.84;100270.06;6153309;23;20411;-84
2023/08/26 00:10:17;;;;;;;7.03;3.00;;;;;;;21.71;94.00;100253.16;6182315;23;20363;-84
2023/08/26 00:12:48;;;;;;;4.43;3.40;;;;;;;21.75;92.36;100254.22;6179526;23;20489;-84
2023/08/26 00:15:18;;;;;;;3.73;3.40;;;;;;;21.54;93.27;100252.78;6146976;23;20410;-83
2023/08/26 00:17:48;;;;;;;4.63;3.77;;;;;;;21.46;94.48;100253.41;6155644;23;20449;-82
2023/08/26 00:20:21;;;;;;;6.13;5.40;;;;;;;21.32;94.47;100249.69;6156119;23;20420;-83
2023/08/26 00:22:50;;;;;;;3.90;3.50;;;;;;;21.34;94.74;100255.72;6153473;23;20405;-82
2023/08/26 00:25:20;;;;;;;9.73;5.57;;;;;;;21.28;95.42;100265.13;6157424;23;20395;-86
2023/08/26 00:27:51;;;;;;;4.73;3.43;;;;;;;21.28;95.75;100260.44;6159607;23;20393;-83
2023/08/26 00:30:21;;;;;;;3.57;3.07;;;;;;;21.32;96.58;100255.19;6159355;23;20392;-84
2023/08/26 00:32:51;;;;;;;6.43;4.97;;;;;;;21.15;96.29;100250.13;6158566;23;20413;-84
2023/08/26 00:35:21;;;;;;;3.33;3.03;;;;;;;21.20;97.73;100253.63;6184433;23;20384;-82
2023/08/26 00:37:51;;;;;;;3.87;3.47;;;;;;;21.32;96.37;100249.69;6159258;23;20408;-83
2023/08/26 00:40:20;;;;;;;3.50;2.80;;;;;;;21.41;95.98;100253.44;6183726;23;20403;-83
2023/08/26 00:42:55;;;;;;;5.03;3.70;;;;;;;21.49;95.24;100259.16;6158725;23;20409;-83
2023/08/26 00:45:25;;;;;;;5.53;4.00;;;;;;;21.57;94.59;100249.44;6141252;23;20387;-83
2023/08/26 00:47:54;;;;;;;3.80;3.40;;;;;;;21.83;92.66;100250.84;6139425;23;20751;-82
2023/08/26 00:50:24;;;;;;;4.97;4.57;;;;;;;21.62;93.44;100263.16;6163594;23;20738;-82
2023/08/26 00:52:54;;;;;;;5.77;4.00;;;;;;;21.41;94.10;100245.19;6141727;23;20521;-83
2023/08/26 00:55:24;;;;;;;8.27;4.67;;;;;;;21.34;95.26;100248.28;6138595;23;20423;-84
2023/08/26 00:57:56;;;;;;;10.13;4.47;;;;;;;21.52;94.98;100255.81;6135896;23;21001;-82
2023/08/26 01:00:27;;;;;;;5.63;3.20;;;;;;;21.80;93.61;100253.34;6173745;23;20401;-85
2023/08/26 01:03:22;;;;;;;4.77;3.87;;;;;;;22.03;91.29;100242.34;6185057;23;20356;-85
2023/08/26 01:05:52;;;;;;;3.87;3.50;;;;;;;22.08;90.37;100239.53;6185186;23;20378;-85
2023/08/26 01:08:22;;;;;;;3.60;2.80;;;;;;;22.23;90.16;100248.72;6160161;23;20540;-85
2023/08/26 01:11:04;;;;;;;4.60;3.93;;;;;;;22.04;90.21;100241.25;6178257;23;20382;-83
2023/08/26 01:13:43;;;;;;;4.47;3.43;;;;;;;22.25;91.03;100241.00;6138095;23;20423;-82
2023/08/26 01:16:16;;;;;;;4.50;3.93;;;;;;;22.13;88.77;100233.16;6136216;23;20409;-83
2023/08/26 01:18:46;;;;;;;5.03;4.07;;;;;;;21.82;89.30;100232.66;6135051;23;20468;-83
2023/08/26 01:21:19;;;;;;;4.27;3.63;;;;;;;21.90;89.41;100234.78;6135046;23;20429;-83
2023/08/26 01:23:50;;;;;;;4.83;3.50;;;;;;;21.82;88.85;100235.44;6137173;23;20395;-82
2023/08/26 01:26:20;;;;;;;4.67;3.37;;;;;;;21.55;89.85;100237.91;6150409;23;20373;-84
2023/08/26 01:28:50;;;;;;;4.00;3.50;;;;;;;21.75;91.05;100250.63;6183454;23;20392;-82
2023/08/26 01:31:22;;;;;;;3.50;3.20;;;;;;;22.09;89.87;100249.47;6181954;23;20352;-83
2023/08/26 01:34:01;;;;;;;3.90;3.00;;;;;;;22.01;88.11;100246.53;6154589;23;20385;-84
2023/08/26 01:36:51;;;;;;;3.20;2.90;;;;;;;22.11;88.95;100243.66;6155145;23;20437;-83
2023/08/26 01:39:23;;;;;;;5.53;3.97;;;;;;;21.97;88.46;100232.53;6156476;23;20479;-83
2023/08/26 01:41:52;;;;;;;6.37;3.23;;;;;;;21.97;88.47;100240.78;6154641;23;20435;-83
2023/08/26 01:44:22;;;;;;;4.70;2.80;;;;;;;22.07;87.51;100235.13;6136619;23;20440;-84
2023/08/26 01:46:52;;;;;;;3.37;2.53;;;;;;;22.04;87.15;100235.75;6135346;23;20407;-82
2023/08/26 01:49:23;;;;;;;9.20;3.97;;;;;;;22.20;87.05;100230.03;6161124;23;21036;-83
2023/08/26 01:51:52;;;;;;;4.47;3.87;;;;;;;22.18;86.63;100229.50;6134662;23;20473;-82
2023/08/26 01:54:23;;;;;;;4.83;2.97;;;;;;;22.16;87.09;100227.06;6135338;23;20899;-84
2023/08/26 01:56:55;;;;;;;6.07;3.17;;;;;;;21.85;87.29;100234.00;6135501;23;20424;-83
2023/08/26 01:59:24;;;;;;;4.97;3.23;;;;;;;21.46;88.92;100226.69;6133548;23;20376;-83
2023/08/26 02:01:54;;;;;;;4.70;4.17;;;;;;;21.19;89.99;100230.00;6135818;23;20524;-85
2023/08/26 02:04:24;;;;;;;3.63;2.90;;;;;;;21.08;92.00;100222.88;6166490;23;20373;-84
2023/08/26 02:06:54;;;;;;;3.50;3.10;;;;;;;21.30;90.08;100224.41;6147803;23;20419;-81
2023/08/26 02:09:26;;;;;;;4.43;3.03;;;;;;;21.34;89.17;100225.47;6145389;23;20873;-84
2023/08/26 02:11:55;;;;;;;9.80;2.87;;;;;;;21.49;87.67;100222.56;6136958;23;20413;-83
2023/08/26 02:14:25;;;;;;;4.50;3.13;;;;;;;21.55;89.47;100229.63;6142409;23;20418;-84
2023/08/26 02:16:54;;;;;;;3.37;2.93;;;;;;;21.78;88.25;100220.59;6160916;23;20390;-85
2023/08/26 02:19:24;;;;;;;3.87;3.47;;;;;;;21.68;87.78;100221.53;6134863;23;20409;-84
2023/08/26 02:21:54;;;;;;;7.90;3.07;;;;;;;21.27;87.72;100213.94;6134098;23;20460;-81
2023/08/26 02:24:26;;;;;;;6.60;3.47;;;;;;;21.48;89.27;100210.72;6134892;23;20409;-84
2023/08/26 02:26:56;;;;;;;4.60;3.37;;;;;;;21.49;88.69;100206.88;6134574;23;20409;-83
2023/08/26 02:29:25;;;;;;;5.30;3.03;;;;;;;21.53;88.19;100202.41;6135141;23;20391;-83
2023/08/26 02:31:55;;;;;;;5.37;3.13;;;;;;;21.35;89.29;100208.63;6134414;23;20437;-82
2023/08/26 02:34:25;;;;;;;3.87;3.47;;;;;;;21.47;88.67;100202.75;6134810;23;20957;-83
2023/08/26 02:36:55;;;;;;;4.10;3.67;;;;;;;21.21;89.11;100194.72;6132330;23;20403;-84
2023/08/26 02:39:26;;;;;;;4.77;3.23;;;;;;;21.02;90.17;100195.69;6137408;23;20429;-85
2023/08/26 02:41:56;;;;;;;4.50;3.70;;;;;;;21.14;90.85;100182.44;6156707;23;20411;-86
2023/08/26 02:44:25;;;;;;;4.50;3.87;;;;;;;21.17;90.12;100181.84;6154778;23;20405;-82
2023/08/26 02:46:56;;;;;;;5.13;3.37;;;;;;;20.90;92.30;100171.34;6154720;23;20385;-84
2023/08/26 02:49:27;;;;;;;5.77;3.43;;;;;;;20.77;92.54;100177.47;6175292;23;20360;-83
2023/08/26 02:51:56;;;;;;;7.30;3.60;;;;;;;20.94;92.41;100177.91;6153479;23;20402;-82
2023/08/26 02:54:28;;;;;;;5.23;3.90;;;;;;;20.78;92.48;100170.88;6178263;23;20349;-84
2023/08/26 02:56:59;;;;;;;5.60;3.57;;;;;;;21.03;92.63;100176.16;6150210;23;20408;-82
2023/08/26 02:59:30;;;;;;;5.30;3.40;;;;;;;21.29;89.86;100170.47;6137710;23;20500;-84
2023/08/26 03:02:02;;;;;;;3.97;3.57;;;;;;;21.30;89.66;100174.88;6135737;23;20401;-83
2023/08/26 03:04:32;;;;;;;4.87;3.30;;;;;;;21.05;89.98;100178.63;6136261;23;20381;-83
2023/08/26 03:07:01;;;;;;;4.63;4.07;;;;;;;21.07;91.30;100176.41;6161937;23;20359;-83
2023/08/26 03:09:32;;;;;;;8.60;3.60;;;;;;;20.87;91.67;100171.91;6135622;23;20392;-83
2023/08/26 03:12:02;;;;;;;3.13;2.83;;;;;;;21.09;91.23;100180.53;6134765;23;20912;-83
2023/08/26 03:14:32;;;;;;;5.97;3.90;;;;;;;21.36;92.29;100176.44;6161362;23;20397;-83
2023/08/26 03:17:01;;;;;;;3.80;2.90;;;;;;;21.56;89.51;100182.56;6161612;23;20875;-84
2023/08/26 03:19:31;;;;;;;4.57;3.30;;;;;;;21.39;89.66;100189.63;6163098;23;20378;-84
2023/08/26 03:22:00;;;;;;;3.90;3.50;;;;;;;21.55;89.11;100189.16;6154630;23;20502;-86
2023/08/26 03:24:35;;;;;;;5.07;3.70;;;;;;;21.45;88.29;100194.78;6149448;23;20376;-80
2023/08/26 03:27:05;;;;;;;4.37;3.90;;;;;;;21.38;88.47;100202.56;6134043;23;20386;-82
2023/08/26 03:29:34;;;;;;;6.10;3.63;;;;;;;21.49;89.38;100206.88;6161632;23;20746;-84
2023/08/26 03:32:05;;;;;;;11.07;3.77;;;;;;;21.47;88.74;100211.00;6133944;23;20945;-83
2023/08/26 03:34:34;;;;;;;5.60;4.27;;;;;;;21.36;88.70;100206.72;6134662;23;20388;-84
2023/08/26 03:37:04;;;;;;;3.70;3.00;;;;;;;21.18;89.75;100192.56;6132973;23;20372;-82
2023/08/26 03:39:35;;;;;;;3.73;3.43;;;;;;;21.22;89.80;100199.13;6132534;23;20388;-83
2023/08/26 03:42:05;;;;;;;7.03;4.23;;;;;;;20.88;90.47;100195.53;6133686;23;20411;-83
2023/08/26 03:44:36;;;;;;;6.07;3.90;;;;;;;20.90;91.78;100192.50;6133465;23;20461;-84
2023/08/26 03:47:06;;;;;;;5.33;3.63;;;;;;;20.62;92.62;100185.84;6141637;23;20436;-84
2023/08/26 03:49:35;;;;;;;6.97;4.70;;;;;;;20.54;94.68;100190.00;6148207;23;20400;-82
2023/08/26 03:52:06;;;;;;;6.63;3.73;;;;;;;20.84;93.77;100183.47;6141251;23;20372;-82
2023/08/26 03:54:39;;;;;;;5.60;4.20;;;;;;;20.97;92.41;100193.00;6141116;23;20409;-81
2023/08/26 03:57:09;;;;;;;7.10;3.53;;;;;;;21.17;91.30;100192.84;6140861;23;20944;-83
2023/08/26 03:59:38;;;;;;;4.70;3.63;;;;;;;20.83;91.86;100179.06;6140440;23;20448;-84
2023/08/26 04:02:09;;;;;;;3.97;3.30;;;;;;;20.91;92.76;100191.41;6140429;23;20795;-81
2023/08/26 04:04:39;;;;;;;4.63;4.13;;;;;;;20.85;93.45;100193.38;6140835;23;20391;-81
2023/08/26 04:07:08;;;;;;;8.43;4.70;;;;;;;21.02;92.21;100191.03;6140080;23;20472;-84
2023/08/26 04:09:40;;;;;;;8.83;5.87;;;;;;;20.87;92.12;100193.91;6139363;23;20409;-83
2023/08/26 04:12:10;;;;;;;10.60;4.60;;;;;;;20.79;93.07;100197.25;6141917;23;20394;-83
2023/08/26 04:14:39;;;;;;;9.50;4.30;;;;;;;20.66;93.16;100196.00;6141199;23;20444;-84
2023/08/26 04:17:09;;;;;;;5.20;4.23;;;;;;;20.57;94.57;100194.97;6140320;23;20452;-83
2023/08/26 04:19:38;;;;;;;5.07;4.43;;;;;;;20.44;95.35;100198.31;6139397;23;20380;-82
2023/08/26 04:22:08;;;;;;;8.90;6.03;;;;;;;20.65;94.56;100183.34;6164061;23;20433;-82
2023/08/26 04:24:39;;;;;;;7.97;4.47;;;;;;;20.51;95.47;100167.78;6141324;23;20492;-84
2023/08/26 04:27:09;;;;;;;6.60;4.73;;;;;;;20.72;95.06;100172.03;6140330;23;20404;-82
2023/08/26 04:29:38;;;;;;;4.60;4.20;;;;;;;21.04;92.62;100183.31;6140478;23;20390;-82
2023/08/26 04:32:08;;;;;;;6.10;4.07;;;;;;;20.88;93.00;100192.78;6141736;23;20421;-83
2023/08/26 04:34:38;;;;;;;4.83;4.33;;;;;;;21.08;93.34;100194.56;6144323;23;20747;-83
2023/08/26 04:37:08;;;;;;;7.57;4.20;;;;;;;21.03;92.78;100197.34;6147484;23;20408;-82
2023/08/26 04:39:39;;;;;;;8.83;5.60;;;;;;;21.12;92.62;100196.44;6145931;23;20413;-85
2023/08/26 04:42:09;;;;;;;7.80;5.30;;;;;;;21.29;92.16;100206.25;6165726;23;20443;-81
2023/08/26 04:44:42;;;;;;;5.50;4.90;;;;;;;21.37;91.99;100208.34;6141678;23;20409;-82
2023/08/26 04:47:11;;;;;;;6.40;5.77;;;;;;;21.53;90.96;100226.38;6142263;23;20428;-86
2023/08/26 04:49:42;;;;;;;6.30;5.03;;;;;;;21.76;89.15;100233.84;6144085;23;20376;-82
2023/08/26 04:52:13;;;;;;;7.07;5.13;;;;;;;21.50;90.22;100243.44;6144567;23;20384;-83
2023/08/26 04:54:45;;;;;;;6.03;4.97;;;;;;;21.55;91.04;100238.72;6144444;23;20388;-81
2023/08/26 04:57:14;;;;;;;5.00;4.23;;;;;;;21.77;89.68;100242.91;6174222;23;20390;-82
2023/08/26 04:59:44;;;;;;;9.13;5.87;;;;;;;21.52;91.02;100232.97;6146410;23;20478;-82
2023/08/26 05:02:13;;;;;;;8.17;5.17;;;;;;;21.27;93.00;100222.22;6173848;23;20365;-82
2023/08/26 05:04:44;;;;;;;13.00;5.40;;;;;;;21.46;92.83;100234.13;6151063;23;20780;-84
2023/08/26 05:07:14;;;;;;;7.70;4.30;;;;;;;21.62;91.71;100232.88;6154158;23;20463;-83
2023/08/26 05:09:45;;;;;;;9.07;5.53;;;;;;;21.64;91.87;100230.63;6149247;23;20437;-81
2023/08/26 05:12:15;;;;;;;6.73;5.37;;;;;;;21.49;93.37;100228.06;6180814;23;20670;-84
2023/08/26 05:14:45;;;;;;;5.50;4.87;;;;;;;21.52;93.59;100227.47;6156280;23;20403;-84
2023/08/26 05:17:14;;;;;;;9.67;5.83;;;;;;;21.42;94.53;100227.56;6182887;23;20468;-83
2023/08/26 05:19:44;;;;;;;6.63;4.77;;;;;;;21.50;94.32;100236.00;6158332;23;20457;-83
2023/08/26 05:22:13;;;;;;;9.87;5.50;;;;;;;21.51;94.23;100225.81;6158524;23;20388;-83
2023/08/26 05:24:44;;;;;;;7.43;4.73;;;;;;;21.56;94.13;100225.78;6183287;23;20433;-82
2023/08/26 05:27:16;;;;;;;6.47;4.80;;;;;;;21.74;93.19;100221.44;6158945;23;20424;-81
2023/08/26 05:29:46;;;;;;;9.73;4.90;;;;;;;21.62;94.47;100230.97;6157273;23;20391;-81
2023/08/26 05:32:17;;;;;;;6.73;5.17;;;;;;;21.57;94.47;100230.19;6158715;23;20408;-80
2023/08/26 05:34:48;;;;;;;5.07;4.50;;;;;;;21.50;95.18;100235.19;6158730;23;20393;-83
2023/08/26 05:37:19;;;;;;;6.67;5.03;;;;;;;21.46;95.67;100247.91;6158695;23;20420;-83
2023/08/26 05:39:51;;;;;;;6.87;6.17;;;;;;;21.57;95.85;100254.97;6158593;23;20436;-82
2023/08/26 05:42:20;;;;;;;5.80;4.50;;;;;;;21.75;94.95;100272.66;6158785;23;20460;-82
2023/08/26 05:44:50;;;;;;;5.77;5.23;;;;;;;21.67;95.49;100279.63;6146753;23;20429;-83
2023/08/26 05:47:20;;;;;;;6.40;5.17;;;;;;;21.58;97.21;100282.22;6146556;23;20501;-82
2023/08/26 05:49:50;;;;;;;6.40;5.60;;;;;;;21.56;97.35;100278.09;6146677;23;20723;-85
2023/08/26 05:52:20;;;;;;;6.37;5.70;;;;;;;21.75;96.55;100281.75;6149907;23;20380;-83
2023/08/26 05:54:51;;;;;;;9.10;8.20;;;;;;;21.87;95.55;100278.63;6156713;23;20387;-86
2023/08/26 05:57:21;;;;;;;7.87;6.23;;;;;;;21.74;97.03;100277.34;6156762;23;20428;-84
2023/08/26 05:59:51;;;;;;;8.80;6.57;;;;;;;21.75;97.05;100280.94;6157237;23;20451;-85
2023/08/26 06:02:21;;;;;;;8.90;6.70;;;;;;;21.84;96.67;100280.00;6182972;23;20396;-83
2023/08/26 06:04:51;;;;;;;9.30;6.23;;;;;;;21.92;96.78;100287.66;6157607;23;20436;-83
2023/08/26 06:07:21;;;;;;;6.53;5.70;;;;;;;21.93;97.44;100299.50;6182504;23;20384;-82
2023/08/26 06:09:52;;;;;;;7.03;6.03;;;;;;;22.00;97.22;100300.81;6156134;23;20419;-81
2023/08/26 06:12:22;;;;;;;8.07;6.83;;;;;;;22.00;97.33;100306.31;6155951;23;20393;-82
2023/08/26 06:14:51;;;;;;;10.00;7.53;;;;;;;22.22;95.78;100308.53;6157590;23;20412;-87
2023/08/26 06:17:21;;;;;;;9.47;6.13;;;;;;;22.40;94.18;100313.31;6158836;23;20426;-83
2023/08/26 06:19:50;;;;;;;11.53;7.07;;;;;;;22.40;93.80;100315.25;6157921;23;20413;-82
2023/08/26 06:22:20;;;;;;;10.10;7.77;;;;;;;22.37;94.57;100327.66;6156346;23;20376;-83
2023/08/26 06:24:51;;;;;;;7.83;7.13;;;;;;;22.57;93.23;100334.88;6178539;23;20414;-83
2023/08/26 06:27:23;;;;;;;9.47;6.83;;;;;;;22.56;92.79;100333.22;6180044;23;20409;-84
2023/08/26 06:29:54;;;;;;;7.40;6.50;;;;;;;22.46;93.13;100322.34;6156415;23;20397;-84
2023/08/26 06:32:24;;;;;;;8.40;6.80;;;;;;;22.22;96.26;100310.50;6156918;23;20392;-84
2023/08/26 06:34:54;;;;;;;11.70;6.77;;;;;;;22.15;96.22;100307.25;6154893;23;20439;-84
2023/08/26 06:37:24;;;;;;;7.63;7.03;;;;;;;22.09;97.02;100298.22;6153206;23;20406;-83
2023/08/26 06:39:55;;;;;;;8.60;7.70;;;;;;;21.69;99.51;100302.19;6153544;23;20383;-83
2023/08/26 06:42:24;;;;;;;10.67;8.10;;;;;;;21.44;100.00;100297.75;6152365;23;20423;-85
2023/08/26 06:44:58;;;;;;;8.00;7.23;;;;;;;21.77;99.84;100300.75;6152054;23;20444;-83
2023/08/26 06:47:27;;;;;;;14.43;7.93;;;;;;;21.98;98.17;100319.56;6179096;23;20361;-84
2023/08/26 06:49:57;;;;;;;8.73;7.93;;;;;;;22.08;98.01;100308.41;6156930;23;20404;-83
2023/08/26 06:52:27;;;;;;;7.57;6.67;;;;;;;22.12;97.52;100318.88;6156788;23;20413;-84
2023/08/26 06:54:59;;;;;;;8.60;7.70;;;;;;;22.43;94.42;100320.97;6157894;23;20365;-84
2023/08/26 06:57:28;;;;;;;11.87;8.40;;;;;;;22.67;92.25;100331.97;6157875;23;20392;-85
2023/08/26 06:59:58;;;;;;;9.23;8.33;;;;;;;22.51;93.33;100338.81;6182263;23;20348;-84
2023/08/26 07:02:28;;;;;;;8.43;7.63;;;;;;;22.52;93.66;100345.94;6157698;23;20408;-84
2023/08/26 07:04:58;;;;;;;8.03;7.23;;;;;;;22.35;95.26;100340.09;6177649;23;20384;-82
2023/08/26 07:07:28;;;;;;;7.97;7.17;;;;;;;22.67;92.98;100337.50;6157089;23;20441;-85
2023/08/26 07:09:59;;;;;;;8.30;6.87;;;;;;;22.69;92.39;100335.28;6158233;23;20427;-84
2023/08/26 07:12:29;;;;;;;9.50;7.47;;;;;;;22.55;93.54;100334.34;6157685;23;20459;-83
2023/08/26 07:14:59;;;;;;;8.67;7.77;;;;;;;22.72;92.72;100351.25;6156168;23;20360;-84
2023/08/26 07:17:29;;;;;;;8.17;7.33;;;;;;;22.89;91.80;100345.25;6156118;23;20466;-85
2023/08/26 07:19:58;;;;;;;8.77;7.97;;;;;;;22.85;92.25;100345.00;6158177;23;20631;-84
2023/08/26 07:22:28;;;;;;;8.53;7.73;;;;;;;22.95;91.37;100349.56;6156437;23;20413;-84
2023/08/26 07:25:02;;;;;;;8.53;7.70;;;;;;;22.78;91.50;100344.56;6158449;23;20522;-84
2023/08/26 07:27:33;;;;;;;8.83;7.67;;;;;;;23.10;90.15;100340.22;6183054;23;20390;-83
2023/08/26 07:30:07;;;;;;;8.50;7.70;;;;;;;22.89;91.36;100351.59;6183030;23;20333;-83
2023/08/26 07:32:43;;;;;;;10.67;7.70;;;;;;;22.96;90.93;100357.53;6157960;23;20416;-83
2023/08/26 07:35:12;;;;;;;9.03;7.93;;;;;;;22.87;91.56;100353.00;6156521;23;20409;-85
2023/08/26 07:37:42;;;;;;;7.80;7.10;;;;;;;23.01;90.39;100355.81;6156769;23;20481;-83
2023/08/26 07:40:16;;;;;;;9.50;8.80;;;;;;;23.04;90.35;100358.00;6157005;23;20398;-83
2023/08/26 07:42:53;;;;;;;9.23;7.03;;;;;;;22.96;90.80;100373.28;6157306;23;20423;-84
2023/08/26 07:45:27;;;;;;;8.73;7.93;;;;;;;22.70;91.88;100367.28;6158293;23;20437;-84
2023/08/26 07:47:58;;;;;;;9.13;8.10;;;;;;;22.73;91.82;100372.19;6142547;23;20481;-83
2023/08/26 07:50:31;;;;;;;8.50;7.50;;;;;;;22.74;92.74;100376.59;6072114;23;20486;-84
2023/08/26 07:53:00;;;;;;;9.60;8.60;;;;;;;22.55;93.52;100372.97;6116096;23;20440;-83
2023/08/26 07:55:31;;;;;;;8.83;8.00;;;;;;;22.61;93.11;100365.44;6158562;23;20398;-85
2023/08/26 07:58:01;;;;;;;8.17;7.37;;;;;;;22.64;93.44;100373.13;6183887;23;20478;-84
2023/08/26 08:00:30;;;;;;;9.60;8.17;;;;;;;22.76;92.03;100374.38;6149447;23;20420;-85
2023/08/26 08:03:00;;;;;;;9.83;8.90;;;;;;;22.76;92.36;100379.06;6169973;23;20396;-84
2023/08/26 08:05:30;;;;;;;10.00;8.70;;;;;;;22.76;92.53;100368.03;6142733;23;20437;-85
2023/08/26 08:08:00;;;;;;;8.97;8.17;;;;;;;22.83;92.16;100371.25;6144585;23;20489;-84
2023/08/26 08:10:32;;;;;;;14.83;9.30;;;;;;;22.80;91.42;100378.16;6168710;23;20365;-86
2023/08/26 08:13:02;;;;;;;9.23;7.73;;;;;;;22.98;91.18;100375.75;6169409;23;20406;-86
2023/08/26 08:15:31;;;;;;;10.63;8.70;;;;;;;23.17;89.07;100379.34;6146485;23;20427;-85
2023/08/26 08:18:02;;;;;;;9.07;8.10;;;;;;;23.51;87.80;100384.66;6137153;23;20429;-83
2023/08/26 08:20:31;;;;;;;7.77;7.17;;;;;;;23.77;85.97;100383.09;6163277;23;20401;-85
2023/08/26 08:23:01;;;;;;;10.90;9.80;;;;;;;23.78;86.40;100380.06;6164451;23;20446;-83
2023/08/26 08:25:32;;;;;;;8.13;7.43;;;;;;;23.86;84.49;100386.03;6164679;23;20415;-85
2023/08/26 08:28:03;;;;;;;10.57;8.57;;;;;;;23.65;85.62;100388.28;6167631;23;20437;-84
2023/08/26 08:30:32;;;;;;;10.10;9.20;;;;;;;23.51;86.55;100385.47;6164679;23;20378;-84
2023/08/26 08:33:02;;;;;;;10.57;8.90;;;;;;;23.29;88.19;100390.75;6138651;23;20413;-85
2023/08/26 08:35:32;;;;;;;9.77;8.77;;;;;;;23.25;88.67;100387.75;6166214;23;20371;-84
2023/08/26 08:38:03;;;;;;;9.93;8.83;;;;;;;23.18;89.52;100386.50;6166318;23;20402;-84
2023/08/26 08:40:37;;;;;;;9.23;8.37;;;;;;;23.13;89.61;100390.16;6165738;23;20415;-83
2023/08/26 08:43:13;;;;;;;8.57;7.80;;;;;;;23.13;89.92;100384.63;6136239;23;20417;-85
2023/08/26 08:45:43;;;;;;;9.30;8.37;;;;;;;22.96;90.56;100382.38;6163745;23;20420;-85
2023/08/26 08:48:14;;;;;;;9.47;8.57;;;;;;;23.14;89.84;100386.25;6171641;23;20416;-84
2023/08/26 08:50:45;;;;;;;9.93;7.80;;;;;;;23.70;86.55;100389.03;6142486;23;20410;-85
2023/08/26 08:53:27;;;;;;;12.03;8.30;;;;;;;23.81;86.02;100387.75;6168108;23;20789;-83
2023/08/26 08:56:02;;;;;;;10.30;9.00;;;;;;;24.15;84.22;100383.84;6167021;23;20369;-83
2023/08/26 08:58:32;;;;;;;9.50;8.40;;;;;;;23.92;82.65;100391.13;6167109;23;20440;-84
2023/08/26 09:01:04;;;;;;;9.53;8.50;;;;;;;24.10;82.78;100387.53;6140589;23;20409;-83
2023/08/26 09:03:35;;;;;;;10.00;7.53;;;;;;;24.21;81.69;100382.63;6142479;23;20486;-84
2023/08/26 09:06:04;;;;;;;8.17;7.37;;;;;;;24.35;80.98;100377.16;6141407;23;20439;-84
2023/08/26 09:08:34;;;;;;;9.07;8.17;;;;;;;24.49;79.78;100381.56;6139253;23;20440;-83
2023/08/26 09:11:06;;;;;;;7.80;7.10;;;;;;;24.64;79.36;100386.75;6163261;23;20392;-85
2023/08/26 09:13:36;;;;;;;7.57;6.80;;;;;;;25.00;77.96;100377.75;6137158;23;20756;-84
2023/08/26 09:16:06;;;;;;;12.50;8.40;;;;;;;25.08;77.02;100374.22;6142874;23;20435;-85
2023/08/26 09:18:40;;;;;;;11.90;8.50;;;;;;;25.04;76.43;100382.34;6138084;23;20799;-84
2023/08/26 09:21:13;;;;;;;9.57;6.77;;;;;;;25.19;75.42;100375.66;6142488;23;20413;-82
2023/08/26 09:23:46;;;;;;;8.57;6.60;;;;;;;25.42;74.70;100385.63;6139803;23;20393;-85
2023/08/26 09:26:17;;;;;;;7.57;6.87;;;;;;;25.66;72.86;100384.56;6138764;23;20456;-85
2023/08/26 09:28:51;;;;;;;6.83;6.13;;;;;;;25.83;70.72;100387.44;6168865;23;20738;-83
2023/08/26 09:31:21;;;;;;;8.00;5.87;;;;;;;25.46;72.28;100383.06;6139694;23;20413;-86
2023/08/26 09:34:00;;;;;;;8.97;7.13;;;;;;;25.29;72.76;100392.03;6143718;23;20441;-87
2023/08/26 09:36:40;;;;;;;9.70;8.70;;;;;;;24.86;74.33;100397.09;6140472;23;20405;-85
2023/08/26 09:39:16;;;;;;;10.10;7.83;;;;;;;25.29;73.07;100386.50;6138943;23;20468;-85
2023/08/26 09:41:48;;;;;;;13.53;9.87;;;;;;;25.10;70.81;100385.81;6139693;23;20417;-84
2023/08/26 09:44:21;;;;;;;10.93;9.83;;;;;;;24.98;72.10;100391.09;6147717;23;20405;-83
2023/08/26 09:46:50;;;;;;;10.53;9.57;;;;;;;24.97;72.70;100389.44;6169551;23;20471;-84
2023/08/26 09:49:20;;;;;;;8.57;7.70;;;;;;;25.27;71.90;100391.50;6140341;23;20428;-84
2023/08/26 09:51:51;;;;;;;17.37;9.40;;;;;;;25.72;68.96;100399.91;6138212;23;20413;-84
2023/08/26 09:54:22;;;;;;;13.43;10.97;;;;;;;25.82;68.51;100403.25;6137816;23;20484;-85
2023/08/26 09:56:53;;;;;;;12.07;10.57;;;;;;;25.43;69.77;100401.13;6138608;23;20416;-84
2023/08/26 09:59:23;;;;;;;11.43;10.40;;;;;;;25.42;69.25;100401.41;6164143;23;20396;-85
2023/08/26 10:01:52;;;;;;;10.90;9.80;;;;;;;25.09;70.60;100406.31;6165386;23;20424;-84
2023/08/26 10:04:27;;;;;;;13.60;12.40;;;;;;;25.03;70.11;100405.63;6139926;23;20439;-84
2023/08/26 10:07:00;;;;;;;12.10;11.00;;;;;;;25.35;69.56;100401.03;6138108;23;20451;-84
2023/08/26 10:09:38;;;;;;;22.30;11.27;;;;;;;25.69;68.48;100389.47;6139845;23;20416;-85
2023/08/26 10:12:15;;;;;;;10.70;9.90;;;;;;;25.88;68.11;100392.84;6168996;23;20409;-84
2023/08/26 10:14:49;;;;;;;12.23;11.10;;;;;;;26.05;66.18;100401.25;6141029;23;20504;-83
2023/08/26 10:17:21;;;;;;;11.33;10.13;;;;;;;25.92;66.75;100393.84;6169114;23;20444;-83
2023/08/26 10:19:51;;;;;;;10.87;9.97;;;;;;;25.65;67.82;100405.09;6143472;23;20519;-84
2023/08/26 10:22:21;;;;;;;11.90;10.80;;;;;;;25.74;68.38;100403.19;6169012;23;20366;-83
2023/08/26 10:24:51;;;;;;;11.70;10.70;;;;;;;25.60;67.01;100407.97;6166712;23;20419;-85
2023/08/26 10:27:23;;;;;;;13.97;12.67;;;;;;;25.14;68.00;100392.38;6142999;23;20445;-84
2023/08/26 10:29:56;;;;;;;13.47;11.53;;;;;;;24.75;69.56;100389.31;6143988;23;20390;-85
2023/08/26 10:32:29;;;;;;;14.40;13.00;;;;;;;24.60;70.66;100394.03;6152564;23;20478;-84
2023/08/26 10:35:00;;;;;;;13.60;12.20;;;;;;;24.93;70.57;100396.72;6181249;23;20358;-84
2023/08/26 10:37:32;;;;;;;14.10;12.87;;;;;;;25.42;68.13;100390.34;6153630;23;20433;-84
2023/08/26 10:40:08;;;;;;;25.63;14.20;;;;;;;26.09;66.44;100399.53;6152902;23;20404;-83
2023/08/26 10:42:39;;;;;;;13.50;12.20;;;;;;;26.89;61.48;100400.41;6177758;23;20377;-81
2023/08/26 10:45:14;;;;;;;13.53;11.97;;;;;;;27.56;59.06;100398.06;6175410;23;20378;-82
2023/08/26 10:47:52;;;;;;;16.67;12.73;;;;;;;27.95;57.61;100394.25;6168820;23;20715;-83
2023/08/26 10:50:23;;;;;;;13.40;12.00;;;;;;;28.30;56.40;100383.88;6140682;23;20472;-84
2023/08/26 10:52:53;;;;;;;15.10;13.37;;;;;;;28.48;55.49;100379.88;6168301;23;20382;-83
2023/08/26 10:55:25;;;;;;;12.03;10.23;;;;;;;27.82;56.05;100387.75;6142214;23;20416;-84
2023/08/26 10:58:12;;;;;;;14.07;12.67;;;;;;;27.65;56.20;100379.41;6143870;23;20433;-82
2023/08/26 11:00:43;;;;;;;11.67;10.43;;;;;;;28.19;54.64;100377.03;6170303;23;20374;-84
2023/08/26 11:03:14;;;;;;;14.70;10.70;;;;;;;28.36;53.94;100382.56;6140498;23;20416;-83
2023/08/26 11:05:45;;;;;;;13.90;12.20;;;;;;;27.65;55.18;100384.97;6163884;23;20485;-84
2023/08/26 11:08:14;;;;;;;16.47;11.37;;;;;;;27.01;57.15;100382.00;6138196;23;20425;-82
2023/08/26 11:10:44;;;;;;;13.47;11.33;;;;;;;27.04;57.97;100370.22;6165174;23;20374;-85
2023/08/26 11:13:15;;;;;;;12.70;11.60;;;;;;;26.67;59.10;100377.13;6139117;23;20410;-82
2023/08/26 11:15:45;;;;;;;13.27;11.70;;;;;;;26.87;58.76;100378.50;6137608;23;20414;-84
2023/08/26 11:18:14;;;;;;;13.50;10.30;;;;;;;26.93;58.94;100380.00;6136982;23;20902;-81
2023/08/26 11:20:45;;;;;;;12.40;11.40;;;;;;;26.17;60.28;100379.34;6135989;23;20449;-82
2023/08/26 11:23:15;;;;;;;11.90;10.40;;;;;;;26.13;59.85;100377.53;6163608;23;20386;-83
2023/08/26 11:25:44;;;;;;;10.53;9.63;;;;;;;26.35;59.52;100381.06;6148059;23;20417;-82
2023/08/26 11:28:15;;;;;;;13.23;8.67;;;;;;;26.93;55.57;100374.44;6147943;23;20461;-83
2023/08/26 11:30:46;;;;;;;10.27;9.13;;;;;;;27.49;54.59;100375.50;6170256;23;20377;-81
2023/08/26 11:33:17;;;;;;;11.30;10.03;;;;;;;27.95;52.21;100375.59;6135610;23;20406;-82
2023/08/26 11:35:48;;;;;;;9.70;8.20;;;;;;;28.01;51.12;100377.06;6161655;23;20462;-83
2023/08/26 11:38:36;;;;;;;11.70;8.40;;;;;;;28.49;50.74;100370.38;6137114;23;20433;-82